createdAt,value
2019-04-03T00:01:10.449Z,5.58
2019-04-03T00:03:39.845Z,5.95
2019-04-03T00:06:08.887Z,5.62
2019-04-03T00:08:37.966Z,7.65
2019-04-03T00:11:09.450Z,5.65
2019-04-03T00:13:41.255Z,6.05
2019-04-03T00:16:09.966Z,4.92
2019-04-03T00:18:40.299Z,5.12
2019-04-03T00:21:09.328Z,5.67
2019-04-03T00:23:38.434Z,5.05
2019-04-03T00:26:07.737Z,5.25
2019-04-03T00:28:37.002Z,4.58
2019-04-03T00:31:06.937Z,4.37
2019-04-03T00:33:37.167Z,5.17
2019-04-03T00:36:07.118Z,5.78
2019-04-03T00:38:36.843Z,4.65
2019-04-03T00:41:07.149Z,5.37
2019-04-03T00:43:37.238Z,7.17
2019-04-03T00:46:07.838Z,4.58
2019-04-03T00:48:37.635Z,5.45
2019-04-03T00:51:07.537Z,5.22
2019-04-03T00:53:36.740Z,4.30
2019-04-03T00:58:42.038Z,5.15
2019-04-03T01:01:12.533Z,3.87
2019-04-03T01:06:10.634Z,5.90
2019-04-03T01:08:39.498Z,6.90
2019-04-03T01:11:08.610Z,4.90
2019-04-03T01:13:37.837Z,4.62
2019-04-03T01:16:07.494Z,3.77
2019-04-03T01:18:37.590Z,6.53
2019-04-03T01:23:38.192Z,3.45
2019-04-03T01:26:09.247Z,5.15
2019-04-03T01:28:41.458Z,4.70
2019-04-03T01:33:38.470Z,5.25
2019-04-03T01:36:07.585Z,4.17
2019-04-03T01:38:37.527Z,4.60
2019-04-03T01:41:07.224Z,4.25
2019-04-03T01:43:37.915Z,5.47
2019-04-03T01:46:07.867Z,5.83
2019-04-03T01:48:37.788Z,3.80
2019-04-03T01:53:36.998Z,5.83
2019-04-03T01:56:07.138Z,5.85
2019-04-03T01:58:36.970Z,4.62
2019-04-03T02:01:08.018Z,4.30
2019-04-03T02:06:06.679Z,4.20
2019-04-03T02:11:06.607Z,4.42
2019-04-03T02:13:36.552Z,4.25
2019-04-03T02:16:06.299Z,4.72
2019-04-03T02:18:36.492Z,5.03
2019-04-03T02:21:06.299Z,4.62
2019-04-03T02:23:36.102Z,4.37
2019-04-03T02:26:06.328Z,3.40
2019-04-03T02:28:36.725Z,7.58
2019-04-03T02:36:05.482Z,5.95
2019-04-03T02:40:33.959Z,6.50
2019-04-03T02:43:02.789Z,4.58
2019-04-03T02:45:31.946Z,4.80
2019-04-03T02:48:04.801Z,5.40
2019-04-03T02:50:31.712Z,6.10
2019-04-03T02:53:05.781Z,5.75
2019-04-03T02:55:39.140Z,8.08
2019-04-03T02:58:08.405Z,6.83
2019-04-03T03:00:38.118Z,6.20
2019-04-03T03:03:07.903Z,5.45
2019-04-03T03:05:37.890Z,6.42
2019-04-03T03:08:09.134Z,9.48
2019-04-03T03:10:38.722Z,8.83
2019-04-03T03:15:41.248Z,7.08
2019-04-03T03:18:11.600Z,8.63
2019-04-03T03:20:41.730Z,5.92
2019-04-03T03:23:11.590Z,7.55
2019-04-03T03:25:42.328Z,5.20
2019-04-03T03:28:14.341Z,5.30
2019-04-03T03:30:54.663Z,5.95
2019-04-03T03:33:32.911Z,5.35
2019-04-03T03:35:50.398Z,5.53
2019-04-03T03:38:20.451Z,6.67
2019-04-03T03:40:49.881Z,7.30
2019-04-03T03:43:21.120Z,7.97
2019-04-03T03:45:53.576Z,6.95
2019-04-03T03:48:23.786Z,6.50
2019-04-03T03:50:56.414Z,7.47
2019-04-03T03:53:24.781Z,10.05
2019-04-03T03:55:57.820Z,10.23
2019-04-03T03:58:26.631Z,7.65
2019-04-03T04:03:26.537Z,7.55
2019-04-03T04:05:56.865Z,8.15
2019-04-03T04:08:27.948Z,7.97
2019-04-03T04:10:59.491Z,8.90
2019-04-03T04:13:28.868Z,6.10
2019-04-03T04:16:02.218Z,6.05
2019-04-03T04:18:29.582Z,6.97
2019-04-03T04:20:59.535Z,8.58
2019-04-03T04:23:28.775Z,7.80
2019-04-03T04:28:27.466Z,8.43
2019-04-03T04:30:56.569Z,8.38
2019-04-03T04:33:25.720Z,11.03
2019-04-03T04:38:24.811Z,7.37
2019-04-03T04:40:54.789Z,8.25
2019-04-03T04:43:25.384Z,8.30
2019-04-03T04:45:55.190Z,7.00
2019-04-03T04:50:55.095Z,8.75
2019-04-03T04:53:25.491Z,7.87
2019-04-03T04:55:55.388Z,7.78
2019-04-03T04:58:25.718Z,7.78
2019-04-03T05:00:55.144Z,8.83
2019-04-03T05:03:24.524Z,7.67
2019-04-03T05:05:57.357Z,7.70
2019-04-03T05:08:26.290Z,6.03
2019-04-03T05:10:56.076Z,7.50
2019-04-03T05:13:25.823Z,7.62
2019-04-03T05:15:55.235Z,8.65
2019-04-03T05:18:24.508Z,8.33
2019-04-03T05:20:54.152Z,7.53
2019-04-03T05:23:23.875Z,7.72
2019-04-03T05:25:54.680Z,6.10
2019-04-03T05:28:24.925Z,7.03
2019-04-03T05:30:54.370Z,7.40
2019-04-03T05:33:23.596Z,8.28
2019-04-03T05:35:52.832Z,9.18
2019-04-03T05:38:22.629Z,7.85
2019-04-03T05:40:52.223Z,8.28
2019-04-03T05:43:21.562Z,8.03
2019-04-03T05:45:50.922Z,8.80
2019-04-03T05:48:20.668Z,9.33
2019-04-03T05:53:19.092Z,9.35
2019-04-03T05:55:48.731Z,12.15
2019-04-03T05:58:18.524Z,10.68
2019-04-03T06:00:48.097Z,13.28
2019-04-03T06:03:17.629Z,10.43
2019-04-03T06:05:46.937Z,11.15
2019-04-03T06:08:16.162Z,11.63
2019-04-03T06:10:45.715Z,8.83
2019-04-03T06:13:17.285Z,11.53
2019-04-03T06:15:47.404Z,9.98
2019-04-03T06:20:47.755Z,11.10
2019-04-03T06:23:17.133Z,8.93
2019-04-03T06:25:48.011Z,9.78
2019-04-03T06:28:17.996Z,10.90
2019-04-03T06:30:48.419Z,10.23
2019-04-03T06:33:18.762Z,11.70
2019-04-03T06:38:17.048Z,13.75
2019-04-03T06:40:46.487Z,20.40
2019-04-03T06:43:17.319Z,27.10
2019-04-03T06:48:15.962Z,34.92
2019-04-03T06:50:45.567Z,11.20
2019-04-03T06:53:15.064Z,9.33
2019-04-03T06:55:44.631Z,9.68
2019-04-03T07:00:42.488Z,8.40
2019-04-03T07:05:41.939Z,17.50
2019-04-03T07:08:12.950Z,18.25
2019-04-03T07:10:54.195Z,17.92
2019-04-03T07:13:16.424Z,15.72
2019-04-03T07:15:45.635Z,10.18
2019-04-03T07:20:44.065Z,10.75
2019-04-03T07:23:13.748Z,23.75
2019-04-03T07:25:45.123Z,15.65
2019-04-03T07:28:14.909Z,15.32
2019-04-03T07:30:44.216Z,31.60
2019-04-03T07:35:42.700Z,30.92
2019-04-03T07:40:42.065Z,12.73
2019-04-03T07:43:11.542Z,14.03
2019-04-03T07:45:43.684Z,8.50
2019-04-03T07:48:12.109Z,7.42
2019-04-03T07:50:42.371Z,9.25
2019-04-03T07:53:11.514Z,11.48
2019-04-03T07:55:43.362Z,10.15
2019-04-03T07:58:13.051Z,7.05
2019-04-03T08:00:42.407Z,10.93
2019-04-03T08:03:11.479Z,8.05
2019-04-03T08:05:40.959Z,7.12
2019-04-03T08:08:10.585Z,6.53
2019-04-03T08:10:40.390Z,7.20
2019-04-03T08:13:10.096Z,6.60
2019-04-03T08:15:42.707Z,7.28
2019-04-03T08:18:12.494Z,8.03
2019-04-03T08:20:42.111Z,6.45
2019-04-03T08:23:14.761Z,15.55
2019-04-03T08:25:47.180Z,13.20
2019-04-03T08:28:15.165Z,9.58
2019-04-03T08:30:45.047Z,6.53
2019-04-03T08:33:17.548Z,6.87
2019-04-03T08:35:45.571Z,4.83
2019-04-03T08:38:15.304Z,4.62
2019-04-03T08:40:44.848Z,7.33
2019-04-03T08:43:14.402Z,5.30
2019-04-03T08:45:44.497Z,6.45
2019-04-03T08:50:47.181Z,7.15
2019-04-03T08:53:17.074Z,4.95
2019-04-03T08:55:46.995Z,5.53
2019-04-03T08:58:17.191Z,6.03
2019-04-03T09:00:46.835Z,8.60
2019-04-03T09:03:16.470Z,5.62
2019-04-03T09:05:50.543Z,4.25
2019-04-03T09:08:18.817Z,4.53
2019-04-03T09:10:49.324Z,4.03
2019-04-03T09:13:22.600Z,6.47
2019-04-03T09:15:50.468Z,3.80
2019-04-03T09:18:19.810Z,5.12
2019-04-03T09:20:49.021Z,6.53
2019-04-03T09:23:18.776Z,4.00
2019-04-03T09:25:48.231Z,5.42
2019-04-03T09:28:17.662Z,4.70
2019-04-03T09:33:16.803Z,3.77
2019-04-03T09:35:46.356Z,4.20
2019-04-03T09:38:15.576Z,5.20
2019-04-03T09:43:15.202Z,4.33
2019-04-03T09:45:44.702Z,4.20
2019-04-03T09:48:14.200Z,5.12
2019-04-03T09:50:46.361Z,4.95
2019-04-03T09:53:15.570Z,4.62
2019-04-03T09:55:45.008Z,4.42
2019-04-03T09:58:14.766Z,3.40
2019-04-03T10:00:44.326Z,4.35
2019-04-03T10:03:14.301Z,5.35
2019-04-03T10:05:43.100Z,3.65
2019-04-03T10:08:12.957Z,4.53
2019-04-03T10:10:47.167Z,4.37
2019-04-03T10:13:16.845Z,5.58
2019-04-03T10:15:46.293Z,4.35
2019-04-03T10:18:15.601Z,3.87
2019-04-03T10:20:48.530Z,4.95
2019-04-03T10:23:16.158Z,4.05
2019-04-03T10:25:45.822Z,6.33
2019-04-03T10:28:15.300Z,5.78
2019-04-03T10:35:50.106Z,4.50
2019-04-03T10:38:19.527Z,5.33
2019-04-03T10:40:49.349Z,3.17
2019-04-03T10:43:18.760Z,6.55
2019-04-03T10:45:49.436Z,4.10
2019-04-03T10:48:18.792Z,4.78
2019-04-03T10:50:48.294Z,3.83
2019-04-03T10:53:19.996Z,3.83
2019-04-03T10:55:49.238Z,3.40
2019-04-03T10:58:18.908Z,3.05
2019-04-03T11:00:49.536Z,3.92
2019-04-03T11:03:19.170Z,2.90
2019-04-03T11:05:49.642Z,3.95
2019-04-03T11:08:19.556Z,4.40
2019-04-03T11:10:48.614Z,3.50
2019-04-03T11:15:47.885Z,4.00
2019-04-03T11:18:20.479Z,3.67
2019-04-03T11:23:18.090Z,3.45
2019-04-03T11:25:49.153Z,3.20
2019-04-03T11:28:20.680Z,3.60
2019-04-03T11:30:52.837Z,3.08
2019-04-03T11:33:21.829Z,3.47
2019-04-03T11:35:53.322Z,4.03
2019-04-03T11:38:27.616Z,3.33
2019-04-03T11:43:23.105Z,3.77
2019-04-03T11:45:52.625Z,4.90
2019-04-03T11:48:21.859Z,6.58
2019-04-03T11:50:51.301Z,4.97
2019-04-03T11:53:20.623Z,4.12
2019-04-03T11:55:50.181Z,4.03
2019-04-03T11:58:21.144Z,4.28
2019-04-03T12:00:52.195Z,4.17
2019-04-03T12:03:21.991Z,4.00
2019-04-03T12:05:51.747Z,4.50
2019-04-03T12:08:53.526Z,4.72
2019-04-03T12:11:26.042Z,4.50
2019-04-03T12:13:55.594Z,5.55
2019-04-03T12:16:26.211Z,5.42
2019-04-03T12:18:57.122Z,4.70
2019-04-03T12:21:27.038Z,4.90
2019-04-03T12:23:58.170Z,6.00
2019-04-03T12:26:28.673Z,5.28
2019-04-03T12:31:26.663Z,5.12
2019-04-03T12:34:02.704Z,5.28
2019-04-03T12:36:28.226Z,6.10
2019-04-03T12:38:57.602Z,5.42
2019-04-03T12:43:57.961Z,6.05
2019-04-03T12:46:37.011Z,4.90
2019-04-03T12:49:09.791Z,6.25
2019-04-03T12:51:39.078Z,6.05
2019-04-03T12:54:12.773Z,6.30
2019-04-03T12:56:42.922Z,5.58
2019-04-03T12:59:13.870Z,8.15
2019-04-03T13:01:43.302Z,6.78
2019-04-03T13:04:13.266Z,8.00
2019-04-03T13:09:26.454Z,6.03
2019-04-03T13:14:31.448Z,6.22
2019-04-03T13:17:01.526Z,5.78
2019-04-03T13:22:00.304Z,5.90
2019-04-03T13:24:29.618Z,6.80
2019-04-03T13:26:59.605Z,7.53
2019-04-03T13:31:57.582Z,6.22
2019-04-03T13:34:26.730Z,6.53
2019-04-03T13:36:56.297Z,5.65
2019-04-03T13:39:25.447Z,9.18
2019-04-03T13:41:55.167Z,8.25
2019-04-03T13:44:26.913Z,6.50
2019-04-03T13:46:55.618Z,7.33
2019-04-03T13:49:24.753Z,5.28
2019-04-03T13:54:27.219Z,5.95
2019-04-03T13:56:56.774Z,6.08
2019-04-03T13:59:27.020Z,5.37
2019-04-03T14:01:57.463Z,4.97
2019-04-03T14:04:26.832Z,5.58
2019-04-03T14:06:56.576Z,4.70
2019-04-03T14:09:26.060Z,7.40
2019-04-03T14:11:55.817Z,5.40
2019-04-03T14:14:24.717Z,6.37
2019-04-03T14:16:55.893Z,4.85
2019-04-03T14:19:25.370Z,4.92
2019-04-03T14:21:55.368Z,4.47
2019-04-03T14:24:37.741Z,5.95
2019-04-03T14:26:55.501Z,4.28
2019-04-03T14:29:24.497Z,5.90
2019-04-03T14:31:53.389Z,4.87
2019-04-03T14:34:22.406Z,4.72
2019-04-03T14:36:52.692Z,5.35
2019-04-03T14:39:22.049Z,4.70
2019-04-03T14:41:53.307Z,5.10
2019-04-03T14:44:22.799Z,4.50
2019-04-03T14:46:51.785Z,4.72
2019-04-03T14:49:26.453Z,3.90
2019-04-03T14:51:55.499Z,4.03
2019-04-03T14:54:25.245Z,4.00
2019-04-03T14:59:23.791Z,6.00
2019-04-03T15:01:52.952Z,5.05
2019-04-03T15:04:22.087Z,3.55
2019-04-03T15:07:01.641Z,4.05
2019-04-03T15:09:21.738Z,5.45
2019-04-03T15:14:21.898Z,4.10
2019-04-03T15:16:51.979Z,4.50
2019-04-03T15:19:21.289Z,4.22
2019-04-03T15:21:52.542Z,5.97
2019-04-03T15:24:22.108Z,3.25
2019-04-03T15:26:53.448Z,3.17
2019-04-03T15:29:22.933Z,5.40
2019-04-03T15:31:53.588Z,4.08
2019-04-03T15:34:27.271Z,4.22
2019-04-03T15:36:54.936Z,3.37
2019-04-03T15:39:24.135Z,3.30
2019-04-03T15:41:54.113Z,3.52
2019-04-03T15:44:23.897Z,2.98
2019-04-03T15:46:53.403Z,3.27
2019-04-03T15:49:25.618Z,5.20
2019-04-03T15:51:53.677Z,3.60
2019-04-03T15:56:55.489Z,3.87
2019-04-03T15:59:25.331Z,3.45
2019-04-03T16:01:55.847Z,3.20
2019-04-03T16:04:27.026Z,2.95
2019-04-03T16:06:56.778Z,2.90
2019-04-03T16:09:25.751Z,3.25
2019-04-03T16:14:31.880Z,4.65
2019-04-03T16:17:02.533Z,5.25
2019-04-03T16:19:33.017Z,2.12
2019-04-03T16:22:02.731Z,4.92
2019-04-03T16:24:32.539Z,4.35
2019-04-03T16:29:46.990Z,4.78
2019-04-03T16:32:16.721Z,6.17
2019-04-03T16:34:46.742Z,2.87
2019-04-03T16:39:45.413Z,2.72
2019-04-03T16:42:15.983Z,2.87
2019-04-03T16:44:46.114Z,4.10
2019-04-03T16:47:15.816Z,4.80
2019-04-03T16:49:46.008Z,3.47
2019-04-03T16:52:15.828Z,3.87
2019-04-03T16:54:49.633Z,4.42
2019-04-03T16:57:21.466Z,3.80
2019-04-03T16:59:49.771Z,3.50
2019-04-03T17:02:19.700Z,5.05
2019-04-03T17:04:50.302Z,3.98
2019-04-03T17:07:20.592Z,6.00
2019-04-03T17:09:51.985Z,5.45
2019-04-03T17:12:20.966Z,4.25
2019-04-03T17:14:50.091Z,5.40
2019-04-03T17:17:19.001Z,5.08
2019-04-03T17:19:50.943Z,3.72
2019-04-03T17:22:19.932Z,3.95
2019-04-03T17:24:51.786Z,5.15
2019-04-03T17:27:19.987Z,3.85
2019-04-03T17:29:49.202Z,6.15
2019-04-03T17:32:18.573Z,4.20
2019-04-03T17:34:48.702Z,4.95
2019-04-03T17:37:20.278Z,3.87
2019-04-03T17:42:17.570Z,4.12
2019-04-03T17:44:46.858Z,3.40
2019-04-03T17:47:19.229Z,4.15
2019-04-03T17:49:47.795Z,2.85
2019-04-03T17:52:16.992Z,4.08
2019-04-03T17:54:46.854Z,2.60
2019-04-03T17:57:17.568Z,3.33
2019-04-03T17:59:48.839Z,2.25
2019-04-03T18:02:18.295Z,3.20
2019-04-03T18:04:48.885Z,4.47
2019-04-03T18:07:18.449Z,3.58
2019-04-03T18:09:47.599Z,3.15
2019-04-03T18:12:21.141Z,3.83
2019-04-03T18:17:19.212Z,3.37
2019-04-03T18:22:16.805Z,3.87
2019-04-03T18:24:46.845Z,3.65
2019-04-03T18:27:16.040Z,3.55
2019-04-03T18:29:46.494Z,4.17
2019-04-03T18:32:16.631Z,4.35
2019-04-03T18:37:26.016Z,4.70
2019-04-03T18:39:55.011Z,4.03
2019-04-03T18:42:24.325Z,3.50
2019-04-03T18:44:53.577Z,3.72
2019-04-03T18:47:22.583Z,3.33
2019-04-03T18:52:21.434Z,3.17
2019-04-03T18:54:50.445Z,4.22
2019-04-03T18:57:19.620Z,4.78
2019-04-03T19:02:17.592Z,4.33
2019-04-03T19:06:13.436Z,4.83
2019-04-03T19:08:41.685Z,6.12
2019-04-03T19:11:10.601Z,4.50
2019-04-03T19:13:44.578Z,4.13
2019-04-03T19:18:41.147Z,4.10
2019-04-03T19:21:23.707Z,4.90
2019-04-03T19:26:13.951Z,4.15
2019-04-03T19:28:43.119Z,4.78
2019-04-03T19:31:14.563Z,4.95
2019-04-03T19:33:45.426Z,3.10
2019-04-03T19:36:16.153Z,3.70
2019-04-03T19:38:45.981Z,5.08
2019-04-03T19:41:15.792Z,4.80
2019-04-03T19:43:45.824Z,4.28
2019-04-03T19:46:16.465Z,4.20
2019-04-03T19:48:46.624Z,4.42
2019-04-03T19:51:16.580Z,4.80
2019-04-03T19:53:58.422Z,4.72
2019-04-03T19:56:17.762Z,5.55
2019-04-03T20:01:18.820Z,6.22
2019-04-03T20:03:48.105Z,3.95
2019-04-03T20:06:17.486Z,5.62
2019-04-03T20:08:50.357Z,3.08
2019-04-03T20:11:19.575Z,3.75
2019-04-03T20:13:51.762Z,4.90
2019-04-03T20:16:24.284Z,4.78
2019-04-03T20:18:56.268Z,3.87
2019-04-03T20:21:25.650Z,3.77
2019-04-03T20:23:57.703Z,5.40
2019-04-03T20:29:02.130Z,4.75
2019-04-03T20:31:35.747Z,4.05
2019-04-03T20:34:05.471Z,3.12
2019-04-03T20:36:35.060Z,2.55
2019-04-03T20:39:08.128Z,3.47
2019-04-03T20:43:11.198Z,2.75
2019-04-03T20:45:39.815Z,4.45
2019-04-03T20:48:08.734Z,3.98
2019-04-03T20:53:08.946Z,3.42
2019-04-03T20:55:38.034Z,2.75
2019-04-03T20:58:07.060Z,2.85
2019-04-03T21:00:35.995Z,2.27
2019-04-03T21:03:05.117Z,2.45
2019-04-03T21:05:34.104Z,2.42
2019-04-03T21:08:03.038Z,2.40
2019-04-03T21:10:32.062Z,2.62
2019-04-03T21:13:01.281Z,2.42
2019-04-03T21:18:10.934Z,2.77
2019-04-03T21:20:43.576Z,3.10
2019-04-03T21:25:41.627Z,2.72
2019-04-03T21:28:10.969Z,1.67
2019-04-03T21:30:43.432Z,2.75
2019-04-03T21:33:12.440Z,2.25
2019-04-03T21:35:41.592Z,3.55
2019-04-03T21:38:11.378Z,2.42
2019-04-03T21:42:49.564Z,3.10
2019-04-03T21:45:18.991Z,3.00
2019-04-03T21:47:49.701Z,3.45
2019-04-03T21:50:19.261Z,4.03
2019-04-03T21:52:53.873Z,2.90
2019-04-03T21:55:23.072Z,3.00
2019-04-03T21:57:52.014Z,4.72
2019-04-03T22:01:17.427Z,2.70
2019-04-03T22:03:50.525Z,4.55
2019-04-03T22:06:18.491Z,3.60
2019-04-03T22:08:47.738Z,4.22
2019-04-03T22:13:56.106Z,4.45
2019-04-03T22:16:25.577Z,3.25
2019-04-03T22:18:55.380Z,3.98
2019-04-03T22:21:24.606Z,4.20
2019-04-03T22:26:21.931Z,3.22
2019-04-03T22:28:51.032Z,5.30
2019-04-03T22:31:22.837Z,4.17
2019-04-03T22:33:52.452Z,3.95
2019-04-03T22:36:24.439Z,3.42
2019-04-03T22:38:53.581Z,3.45
2019-04-03T22:41:22.923Z,3.92
2019-04-03T22:43:52.064Z,3.05
2019-04-03T22:46:22.011Z,3.72
2019-04-03T22:51:20.413Z,2.87
2019-04-03T22:53:49.609Z,2.20
2019-04-03T22:56:18.968Z,2.15
2019-04-03T22:58:48.734Z,2.12
2019-04-03T23:03:49.348Z,2.67
2019-04-03T23:06:19.435Z,2.80
2019-04-03T23:08:49.233Z,3.02
2019-04-03T23:11:18.479Z,3.50
2019-04-03T23:13:48.565Z,2.95
2019-04-03T23:16:18.497Z,3.80
2019-04-03T23:18:47.696Z,5.33
2019-04-03T23:21:16.877Z,4.05
2019-04-03T23:23:47.048Z,3.70
2019-04-03T23:26:16.054Z,3.05
2019-04-03T23:28:44.994Z,3.02
2019-04-03T23:31:13.958Z,2.67
2019-04-03T23:33:42.955Z,2.72
2019-04-03T23:36:12.412Z,1.90
2019-04-03T23:38:43.007Z,2.70
2019-04-03T23:41:11.980Z,3.00
2019-04-03T23:43:40.940Z,2.75
2019-04-03T23:46:12.766Z,2.27
2019-04-03T23:48:42.500Z,4.53
2019-04-03T23:51:22.583Z,2.70
2019-04-03T23:53:42.941Z,3.27
2019-04-03T23:56:12.053Z,2.90
2019-04-03T23:58:42.354Z,2.05
